sensor_id;sensor_type;location;lat;lon;timestamp;temperature;humidity
49124;DHT22;48506;48.202;16.274;2024-02-28T00:02:13;12.60;94.80
49124;DHT22;48506;48.202;16.274;2024-02-28T00:04:40;12.60;94.80
49124;DHT22;48506;48.202;16.274;2024-02-28T00:07:07;12.60;94.90
49124;DHT22;48506;48.202;16.274;2024-02-28T00:09:33;12.60;94.90
49124;DHT22;48506;48.202;16.274;2024-02-28T00:11:58;12.60;95.20
49124;DHT22;48506;48.202;16.274;2024-02-28T00:14:25;12.60;94.90
49124;DHT22;48506;48.202;16.274;2024-02-28T00:16:51;12.60;94.90
49124;DHT22;48506;48.202;16.274;2024-02-28T00:19:16;12.60;94.90
49124;DHT22;48506;48.202;16.274;2024-02-28T00:21:44;12.60;94.90
49124;DHT22;48506;48.202;16.274;2024-02-28T00:24:10;12.60;94.90
49124;DHT22;48506;48.202;16.274;2024-02-28T00:26:36;12.60;94.80
49124;DHT22;48506;48.202;16.274;2024-02-28T00:29:02;12.60;94.90
49124;DHT22;48506;48.202;16.274;2024-02-28T00:31:28;12.50;95.00
49124;DHT22;48506;48.202;16.274;2024-02-28T00:33:54;12.60;95.00
49124;DHT22;48506;48.202;16.274;2024-02-28T00:36:20;12.60;95.00
49124;DHT22;48506;48.202;16.274;2024-02-28T00:38:46;12.60;94.90
49124;DHT22;48506;48.202;16.274;2024-02-28T00:41:11;12.60;94.90
49124;DHT22;48506;48.202;16.274;2024-02-28T00:43:37;12.60;94.90
49124;DHT22;48506;48.202;16.274;2024-02-28T00:46:04;12.60;94.90
49124;DHT22;48506;48.202;16.274;2024-02-28T00:48:30;12.60;94.90
49124;DHT22;48506;48.202;16.274;2024-02-28T00:50:55;12.60;94.90
49124;DHT22;48506;48.202;16.274;2024-02-28T00:53:21;12.60;94.90
49124;DHT22;48506;48.202;16.274;2024-02-28T00:55:47;12.60;94.90
49124;DHT22;48506;48.202;16.274;2024-02-28T00:58:13;12.60;94.80
49124;DHT22;48506;48.202;16.274;2024-02-28T01:00:39;12.60;94.80
49124;DHT22;48506;48.202;16.274;2024-02-28T01:03:05;12.60;94.90
49124;DHT22;48506;48.202;16.274;2024-02-28T01:05:31;12.60;94.80
49124;DHT22;48506;48.202;16.274;2024-02-28T01:07:57;12.60;94.90
49124;DHT22;48506;48.202;16.274;2024-02-28T01:10:22;12.60;94.90
49124;DHT22;48506;48.202;16.274;2024-02-28T01:12:49;12.50;94.90
49124;DHT22;48506;48.202;16.274;2024-02-28T01:15:15;12.60;94.90
49124;DHT22;48506;48.202;16.274;2024-02-28T01:17:41;12.60;94.90
49124;DHT22;48506;48.202;16.274;2024-02-28T01:20:07;12.60;94.80
49124;DHT22;48506;48.202;16.274;2024-02-28T01:22:35;12.60;94.80
49124;DHT22;48506;48.202;16.274;2024-02-28T01:25:02;12.60;94.80
49124;DHT22;48506;48.202;16.274;2024-02-28T01:27:28;12.60;94.90
49124;DHT22;48506;48.202;16.274;2024-02-28T01:29:54;12.60;94.90
49124;DHT22;48506;48.202;16.274;2024-02-28T01:32:20;12.60;94.90
49124;DHT22;48506;48.202;16.274;2024-02-28T01:34:46;12.60;94.90
49124;DHT22;48506;48.202;16.274;2024-02-28T01:37:12;12.60;94.90
49124;DHT22;48506;48.202;16.274;2024-02-28T01:39:38;12.60;94.80
49124;DHT22;48506;48.202;16.274;2024-02-28T01:42:04;12.60;94.80
49124;DHT22;48506;48.202;16.274;2024-02-28T01:44:30;12.70;94.80
49124;DHT22;48506;48.202;16.274;2024-02-28T01:46:56;12.60;94.70
49124;DHT22;48506;48.202;16.274;2024-02-28T01:49:24;12.70;94.70
49124;DHT22;48506;48.202;16.274;2024-02-28T01:51:53;12.70;94.70
49124;DHT22;48506;48.202;16.274;2024-02-28T01:54:23;12.70;94.70
49124;DHT22;48506;48.202;16.274;2024-02-28T01:56:49;12.60;94.70
49124;DHT22;48506;48.202;16.274;2024-02-28T01:59:16;12.60;94.70
49124;DHT22;48506;48.202;16.274;2024-02-28T02:01:43;12.70;94.70
49124;DHT22;48506;48.202;16.274;2024-02-28T02:04:09;12.70;94.70
49124;DHT22;48506;48.202;16.274;2024-02-28T02:06:37;12.70;94.60
49124;DHT22;48506;48.202;16.274;2024-02-28T02:09:04;12.70;94.70
49124;DHT22;48506;48.202;16.274;2024-02-28T02:11:30;12.60;94.70
49124;DHT22;48506;48.202;16.274;2024-02-28T02:13:56;12.60;94.70
49124;DHT22;48506;48.202;16.274;2024-02-28T02:16:21;12.60;94.90
49124;DHT22;48506;48.202;16.274;2024-02-28T02:18:48;12.60;94.70
49124;DHT22;48506;48.202;16.274;2024-02-28T02:21:18;12.60;94.70
49124;DHT22;48506;48.202;16.274;2024-02-28T02:23:44;12.50;94.70
49124;DHT22;48506;48.202;16.274;2024-02-28T02:26:10;12.60;94.80
49124;DHT22;48506;48.202;16.274;2024-02-28T02:28:36;12.50;94.80
49124;DHT22;48506;48.202;16.274;2024-02-28T02:31:02;12.50;94.70
49124;DHT22;48506;48.202;16.274;2024-02-28T02:33:28;12.50;94.80
49124;DHT22;48506;48.202;16.274;2024-02-28T02:35:54;12.50;94.90
49124;DHT22;48506;48.202;16.274;2024-02-28T02:38:20;12.40;94.90
49124;DHT22;48506;48.202;16.274;2024-02-28T02:40:53;12.40;95.00
49124;DHT22;48506;48.202;16.274;2024-02-28T02:43:19;12.40;95.00
49124;DHT22;48506;48.202;16.274;2024-02-28T02:45:45;12.40;95.00
49124;DHT22;48506;48.202;16.274;2024-02-28T02:48:11;12.30;95.10
49124;DHT22;48506;48.202;16.274;2024-02-28T02:50:37;12.30;95.10
49124;DHT22;48506;48.202;16.274;2024-02-28T02:53:04;12.10;95.20
49124;DHT22;48506;48.202;16.274;2024-02-28T02:55:30;12.10;95.30
49124;DHT22;48506;48.202;16.274;2024-02-28T02:57:56;11.90;95.30
49124;DHT22;48506;48.202;16.274;2024-02-28T03:00:22;11.80;95.40
49124;DHT22;48506;48.202;16.274;2024-02-28T03:02:48;11.70;95.50
49124;DHT22;48506;48.202;16.274;2024-02-28T03:05:14;11.70;95.60
49124;DHT22;48506;48.202;16.274;2024-02-28T03:07:40;11.60;95.50
49124;DHT22;48506;48.202;16.274;2024-02-28T03:10:06;11.60;95.50
49124;DHT22;48506;48.202;16.274;2024-02-28T03:12:32;11.50;95.50
49124;DHT22;48506;48.202;16.274;2024-02-28T03:14:58;11.50;95.40
49124;DHT22;48506;48.202;16.274;2024-02-28T03:17:25;11.40;95.40
49124;DHT22;48506;48.202;16.274;2024-02-28T03:19:50;11.40;95.40
49124;DHT22;48506;48.202;16.274;2024-02-28T03:22:16;11.20;95.50
49124;DHT22;48506;48.202;16.274;2024-02-28T03:24:42;11.20;95.50
49124;DHT22;48506;48.202;16.274;2024-02-28T03:27:08;11.20;95.50
49124;DHT22;48506;48.202;16.274;2024-02-28T03:29:34;11.10;95.50
49124;DHT22;48506;48.202;16.274;2024-02-28T03:32:00;11.00;95.50
49124;DHT22;48506;48.202;16.274;2024-02-28T03:34:26;11.00;95.50
49124;DHT22;48506;48.202;16.274;2024-02-28T03:36:51;10.90;95.50
49124;DHT22;48506;48.202;16.274;2024-02-28T03:39:18;10.90;95.50
49124;DHT22;48506;48.202;16.274;2024-02-28T03:41:44;10.80;95.60
49124;DHT22;48506;48.202;16.274;2024-02-28T03:44:09;10.70;95.60
49124;DHT22;48506;48.202;16.274;2024-02-28T03:46:36;10.70;95.70
49124;DHT22;48506;48.202;16.274;2024-02-28T03:49:02;10.70;95.80
49124;DHT22;48506;48.202;16.274;2024-02-28T03:51:28;10.70;95.70
49124;DHT22;48506;48.202;16.274;2024-02-28T03:53:55;10.60;95.70
49124;DHT22;48506;48.202;16.274;2024-02-28T03:56:24;10.60;95.80
49124;DHT22;48506;48.202;16.274;2024-02-28T03:58:51;10.60;95.80
49124;DHT22;48506;48.202;16.274;2024-02-28T04:01:18;10.50;95.90
49124;DHT22;48506;48.202;16.274;2024-02-28T04:03:44;10.50;95.90
49124;DHT22;48506;48.202;16.274;2024-02-28T04:06:11;10.40;95.90
49124;DHT22;48506;48.202;16.274;2024-02-28T04:08:37;10.40;95.90
49124;DHT22;48506;48.202;16.274;2024-02-28T04:11:04;10.30;95.90
49124;DHT22;48506;48.202;16.274;2024-02-28T04:13:30;10.30;95.90
49124;DHT22;48506;48.202;16.274;2024-02-28T04:15:56;10.30;96.00
49124;DHT22;48506;48.202;16.274;2024-02-28T04:18:23;10.20;96.00
49124;DHT22;48506;48.202;16.274;2024-02-28T04:20:49;10.10;96.00
49124;DHT22;48506;48.202;16.274;2024-02-28T04:23:14;10.10;96.00
49124;DHT22;48506;48.202;16.274;2024-02-28T04:25:42;10.00;96.10
49124;DHT22;48506;48.202;16.274;2024-02-28T04:28:08;10.00;96.00
49124;DHT22;48506;48.202;16.274;2024-02-28T04:30:37;9.90;96.10
49124;DHT22;48506;48.202;16.274;2024-02-28T04:33:03;9.90;96.10
49124;DHT22;48506;48.202;16.274;2024-02-28T04:35:29;9.90;96.00
49124;DHT22;48506;48.202;16.274;2024-02-28T04:37:54;9.80;96.00
49124;DHT22;48506;48.202;16.274;2024-02-28T04:40:20;9.80;96.00
49124;DHT22;48506;48.202;16.274;2024-02-28T04:42:46;9.70;96.10
49124;DHT22;48506;48.202;16.274;2024-02-28T04:45:12;9.70;96.10
49124;DHT22;48506;48.202;16.274;2024-02-28T04:47:38;9.70;96.10
49124;DHT22;48506;48.202;16.274;2024-02-28T04:50:05;9.60;96.10
49124;DHT22;48506;48.202;16.274;2024-02-28T04:52:32;9.60;96.10
49124;DHT22;48506;48.202;16.274;2024-02-28T04:54:58;9.50;96.10
49124;DHT22;48506;48.202;16.274;2024-02-28T04:57:24;9.50;96.10
49124;DHT22;48506;48.202;16.274;2024-02-28T04:59:50;9.40;96.10
49124;DHT22;48506;48.202;16.274;2024-02-28T05:02:16;9.40;96.10
49124;DHT22;48506;48.202;16.274;2024-02-28T05:04:43;9.30;96.10
49124;DHT22;48506;48.202;16.274;2024-02-28T05:07:09;9.30;96.20
49124;DHT22;48506;48.202;16.274;2024-02-28T05:09:35;9.30;96.20
49124;DHT22;48506;48.202;16.274;2024-02-28T05:12:01;9.20;96.30
49124;DHT22;48506;48.202;16.274;2024-02-28T05:14:28;9.30;96.20
49124;DHT22;48506;48.202;16.274;2024-02-28T05:16:54;9.20;96.10
49124;DHT22;48506;48.202;16.274;2024-02-28T05:19:20;9.20;96.10
49124;DHT22;48506;48.202;16.274;2024-02-28T05:21:46;9.20;96.10
49124;DHT22;48506;48.202;16.274;2024-02-28T05:24:14;9.20;96.10
49124;DHT22;48506;48.202;16.274;2024-02-28T05:26:39;9.10;96.20
49124;DHT22;48506;48.202;16.274;2024-02-28T05:29:06;9.10;96.10
49124;DHT22;48506;48.202;16.274;2024-02-28T05:31:32;9.10;96.30
49124;DHT22;48506;48.202;16.274;2024-02-28T05:33:59;9.10;96.20
49124;DHT22;48506;48.202;16.274;2024-02-28T05:36:29;9.00;96.10
49124;DHT22;48506;48.202;16.274;2024-02-28T05:38:56;9.10;96.10
49124;DHT22;48506;48.202;16.274;2024-02-28T05:41:22;9.00;96.20
49124;DHT22;48506;48.202;16.274;2024-02-28T05:43:49;9.00;96.10
49124;DHT22;48506;48.202;16.274;2024-02-28T05:46:19;9.00;96.20
49124;DHT22;48506;48.202;16.274;2024-02-28T05:48:46;9.00;96.20
49124;DHT22;48506;48.202;16.274;2024-02-28T05:51:12;9.00;96.20
49124;DHT22;48506;48.202;16.274;2024-02-28T05:53:42;9.00;96.10
49124;DHT22;48506;48.202;16.274;2024-02-28T05:56:10;9.00;96.10
49124;DHT22;48506;48.202;16.274;2024-02-28T05:58:44;9.00;96.10
49124;DHT22;48506;48.202;16.274;2024-02-28T06:01:10;9.00;96.20
49124;DHT22;48506;48.202;16.274;2024-02-28T06:03:39;9.00;96.10
49124;DHT22;48506;48.202;16.274;2024-02-28T06:06:06;9.00;96.00
49124;DHT22;48506;48.202;16.274;2024-02-28T06:08:38;9.00;96.00
49124;DHT22;48506;48.202;16.274;2024-02-28T06:11:07;9.10;96.00
49124;DHT22;48506;48.202;16.274;2024-02-28T06:13:33;9.10;96.00
49124;DHT22;48506;48.202;16.274;2024-02-28T06:15:59;9.10;95.90
49124;DHT22;48506;48.202;16.274;2024-02-28T06:18:27;9.10;95.90
49124;DHT22;48506;48.202;16.274;2024-02-28T06:20:54;9.10;95.90
49124;DHT22;48506;48.202;16.274;2024-02-28T06:23:21;9.10;95.90
49124;DHT22;48506;48.202;16.274;2024-02-28T06:25:47;9.10;95.80
49124;DHT22;48506;48.202;16.274;2024-02-28T06:28:13;9.10;95.80
49124;DHT22;48506;48.202;16.274;2024-02-28T06:30:39;9.10;95.80
49124;DHT22;48506;48.202;16.274;2024-02-28T06:33:06;9.20;95.60
49124;DHT22;48506;48.202;16.274;2024-02-28T06:35:34;9.20;95.70
49124;DHT22;48506;48.202;16.274;2024-02-28T06:38:01;9.30;95.60
49124;DHT22;48506;48.202;16.274;2024-02-28T06:40:27;9.30;95.50
49124;DHT22;48506;48.202;16.274;2024-02-28T06:42:54;9.30;95.50
49124;DHT22;48506;48.202;16.274;2024-02-28T06:45:20;9.40;95.50
49124;DHT22;48506;48.202;16.274;2024-02-28T06:47:46;9.40;95.40
49124;DHT22;48506;48.202;16.274;2024-02-28T06:50:12;9.40;95.40
49124;DHT22;48506;48.202;16.274;2024-02-28T06:52:38;9.40;95.40
49124;DHT22;48506;48.202;16.274;2024-02-28T06:55:04;9.40;95.40
49124;DHT22;48506;48.202;16.274;2024-02-28T06:57:40;9.50;95.40
49124;DHT22;48506;48.202;16.274;2024-02-28T07:00:08;9.50;95.30
49124;DHT22;48506;48.202;16.274;2024-02-28T07:02:35;9.60;95.40
49124;DHT22;48506;48.202;16.274;2024-02-28T07:05:02;9.60;95.20
49124;DHT22;48506;48.202;16.274;2024-02-28T07:07:33;9.60;95.20
49124;DHT22;48506;48.202;16.274;2024-02-28T07:09:59;9.70;95.30
49124;DHT22;48506;48.202;16.274;2024-02-28T07:12:25;9.70;95.20
49124;DHT22;48506;48.202;16.274;2024-02-28T07:14:52;9.80;95.20
49124;DHT22;48506;48.202;16.274;2024-02-28T07:17:18;9.80;95.00
49124;DHT22;48506;48.202;16.274;2024-02-28T07:19:43;9.90;95.10
49124;DHT22;48506;48.202;16.274;2024-02-28T07:22:10;9.90;95.00
49124;DHT22;48506;48.202;16.274;2024-02-28T07:24:36;9.90;94.70
49124;DHT22;48506;48.202;16.274;2024-02-28T07:27:03;9.90;94.80
49124;DHT22;48506;48.202;16.274;2024-02-28T07:29:29;10.00;94.80
49124;DHT22;48506;48.202;16.274;2024-02-28T07:31:55;10.00;94.60
49124;DHT22;48506;48.202;16.274;2024-02-28T07:34:21;10.00;94.80
49124;DHT22;48506;48.202;16.274;2024-02-28T07:36:47;10.00;94.60
49124;DHT22;48506;48.202;16.274;2024-02-28T07:39:13;10.10;94.60
49124;DHT22;48506;48.202;16.274;2024-02-28T07:41:39;10.10;94.60
49124;DHT22;48506;48.202;16.274;2024-02-28T07:44:07;10.10;94.50
49124;DHT22;48506;48.202;16.274;2024-02-28T07:46:34;10.10;94.20
49124;DHT22;48506;48.202;16.274;2024-02-28T07:49:01;10.10;94.30
49124;DHT22;48506;48.202;16.274;2024-02-28T07:51:28;10.10;94.30
49124;DHT22;48506;48.202;16.274;2024-02-28T07:53:54;10.10;94.30
49124;DHT22;48506;48.202;16.274;2024-02-28T07:56:21;10.20;94.30
49124;DHT22;48506;48.202;16.274;2024-02-28T07:58:47;10.20;94.20
49124;DHT22;48506;48.202;16.274;2024-02-28T08:01:13;10.30;94.20
49124;DHT22;48506;48.202;16.274;2024-02-28T08:03:39;10.40;94.20
49124;DHT22;48506;48.202;16.274;2024-02-28T08:06:05;10.40;93.80
49124;DHT22;48506;48.202;16.274;2024-02-28T08:08:30;10.40;94.00
49124;DHT22;48506;48.202;16.274;2024-02-28T08:10:57;10.50;94.00
49124;DHT22;48506;48.202;16.274;2024-02-28T08:13:23;10.50;93.70
49124;DHT22;48506;48.202;16.274;2024-02-28T08:15:48;10.50;93.70
49124;DHT22;48506;48.202;16.274;2024-02-28T08:18:14;10.60;93.60
49124;DHT22;48506;48.202;16.274;2024-02-28T08:20:40;10.70;93.60
49124;DHT22;48506;48.202;16.274;2024-02-28T08:23:07;10.80;93.60
49124;DHT22;48506;48.202;16.274;2024-02-28T08:25:33;10.80;93.50
49124;DHT22;48506;48.202;16.274;2024-02-28T08:27:59;10.90;93.40
49124;DHT22;48506;48.202;16.274;2024-02-28T08:30:25;11.00;93.20
49124;DHT22;48506;48.202;16.274;2024-02-28T08:32:51;11.00;93.10
49124;DHT22;48506;48.202;16.274;2024-02-28T08:35:20;11.00;93.00
49124;DHT22;48506;48.202;16.274;2024-02-28T08:37:46;11.10;93.00
49124;DHT22;48506;48.202;16.274;2024-02-28T08:40:13;11.10;93.10
49124;DHT22;48506;48.202;16.274;2024-02-28T08:42:38;11.20;92.80
49124;DHT22;48506;48.202;16.274;2024-02-28T08:45:05;11.30;92.60
49124;DHT22;48506;48.202;16.274;2024-02-28T08:47:31;11.30;92.60
49124;DHT22;48506;48.202;16.274;2024-02-28T08:49:57;11.30;92.60
49124;DHT22;48506;48.202;16.274;2024-02-28T08:52:23;11.30;93.10
49124;DHT22;48506;48.202;16.274;2024-02-28T08:54:49;11.40;92.30
49124;DHT22;48506;48.202;16.274;2024-02-28T08:57:15;11.40;92.80
49124;DHT22;48506;48.202;16.274;2024-02-28T08:59:41;11.60;92.50
49124;DHT22;48506;48.202;16.274;2024-02-28T09:02:08;11.60;92.40
49124;DHT22;48506;48.202;16.274;2024-02-28T09:04:35;11.70;92.50
49124;DHT22;48506;48.202;16.274;2024-02-28T09:07:01;11.70;92.30
49124;DHT22;48506;48.202;16.274;2024-02-28T09:09:27;11.70;92.20
49124;DHT22;48506;48.202;16.274;2024-02-28T09:11:55;11.70;92.40
49124;DHT22;48506;48.202;16.274;2024-02-28T09:14:21;11.90;92.30
49124;DHT22;48506;48.202;16.274;2024-02-28T09:16:48;11.90;92.00
49124;DHT22;48506;48.202;16.274;2024-02-28T09:19:14;11.90;92.10
49124;DHT22;48506;48.202;16.274;2024-02-28T09:21:40;12.00;91.90
49124;DHT22;48506;48.202;16.274;2024-02-28T09:24:06;11.90;92.20
49124;DHT22;48506;48.202;16.274;2024-02-28T09:26:32;12.00;92.00
49124;DHT22;48506;48.202;16.274;2024-02-28T09:28:58;12.10;92.30
49124;DHT22;48506;48.202;16.274;2024-02-28T09:31:24;12.20;92.10
49124;DHT22;48506;48.202;16.274;2024-02-28T09:33:50;12.30;91.90
49124;DHT22;48506;48.202;16.274;2024-02-28T09:36:16;12.40;91.50
49124;DHT22;48506;48.202;16.274;2024-02-28T09:38:44;12.50;91.70
49124;DHT22;48506;48.202;16.274;2024-02-28T09:41:15;12.60;92.10
49124;DHT22;48506;48.202;16.274;2024-02-28T09:43:42;12.80;91.40
49124;DHT22;48506;48.202;16.274;2024-02-28T09:46:08;12.80;91.00
49124;DHT22;48506;48.202;16.274;2024-02-28T09:48:40;12.80;91.10
49124;DHT22;48506;48.202;16.274;2024-02-28T09:51:08;12.90;91.30
49124;DHT22;48506;48.202;16.274;2024-02-28T09:53:39;12.90;90.80
49124;DHT22;48506;48.202;16.274;2024-02-28T09:56:06;13.00;91.00
49124;DHT22;48506;48.202;16.274;2024-02-28T09:58:33;13.00;91.30
49124;DHT22;48506;48.202;16.274;2024-02-28T10:01:02;13.10;91.20
49124;DHT22;48506;48.202;16.274;2024-02-28T10:03:30;13.20;90.60
49124;DHT22;48506;48.202;16.274;2024-02-28T10:05:57;13.30;90.80
49124;DHT22;48506;48.202;16.274;2024-02-28T10:08:23;13.50;90.70
49124;DHT22;48506;48.202;16.274;2024-02-28T10:10:50;13.60;90.50
49124;DHT22;48506;48.202;16.274;2024-02-28T10:13:20;13.80;90.70
49124;DHT22;48506;48.202;16.274;2024-02-28T10:15:49;13.90;90.10
49124;DHT22;48506;48.202;16.274;2024-02-28T10:18:15;14.00;90.30
49124;DHT22;48506;48.202;16.274;2024-02-28T10:20:42;14.20;90.00
49124;DHT22;48506;48.202;16.274;2024-02-28T10:23:08;14.40;90.10
49124;DHT22;48506;48.202;16.274;2024-02-28T10:25:45;14.70;89.10
49124;DHT22;48506;48.202;16.274;2024-02-28T10:28:12;14.80;87.80
49124;DHT22;48506;48.202;16.274;2024-02-28T10:30:43;14.70;87.20
49124;DHT22;48506;48.202;16.274;2024-02-28T10:33:13;14.70;87.30
49124;DHT22;48506;48.202;16.274;2024-02-28T10:35:43;14.80;87.70
49124;DHT22;48506;48.202;16.274;2024-02-28T10:38:13;15.00;86.70
49124;DHT22;48506;48.202;16.274;2024-02-28T10:40:40;15.20;87.80
49124;DHT22;48506;48.202;16.274;2024-02-28T10:43:08;15.10;85.80
49124;DHT22;48506;48.202;16.274;2024-02-28T10:45:38;15.10;87.00
49124;DHT22;48506;48.202;16.274;2024-02-28T10:48:07;15.20;86.40
49124;DHT22;48506;48.202;16.274;2024-02-28T10:50:33;15.30;85.50
49124;DHT22;48506;48.202;16.274;2024-02-28T10:53:04;15.30;85.90
49124;DHT22;48506;48.202;16.274;2024-02-28T10:55:34;15.30;85.80
49124;DHT22;48506;48.202;16.274;2024-02-28T10:58:07;15.30;85.80
49124;DHT22;48506;48.202;16.274;2024-02-28T11:00:35;15.50;86.10
49124;DHT22;48506;48.202;16.274;2024-02-28T11:03:04;15.70;85.90
49124;DHT22;48506;48.202;16.274;2024-02-28T11:05:39;15.70;85.40
49124;DHT22;48506;48.202;16.274;2024-02-28T11:08:10;15.80;84.50
49124;DHT22;48506;48.202;16.274;2024-02-28T11:10:41;15.80;86.00
49124;DHT22;48506;48.202;16.274;2024-02-28T11:13:24;16.10;84.60
49124;DHT22;48506;48.202;16.274;2024-02-28T11:15:51;16.10;84.10
49124;DHT22;48506;48.202;16.274;2024-02-28T11:18:18;16.10;85.10
49124;DHT22;48506;48.202;16.274;2024-02-28T11:20:44;16.30;83.80
49124;DHT22;48506;48.202;16.274;2024-02-28T11:23:13;16.20;83.20
49124;DHT22;48506;48.202;16.274;2024-02-28T11:25:41;16.10;83.80
49124;DHT22;48506;48.202;16.274;2024-02-28T11:28:07;15.80;83.60
49124;DHT22;48506;48.202;16.274;2024-02-28T11:30:33;15.70;84.00
49124;DHT22;48506;48.202;16.274;2024-02-28T11:32:59;15.70;85.40
49124;DHT22;48506;48.202;16.274;2024-02-28T11:35:28;15.80;84.40
49124;DHT22;48506;48.202;16.274;2024-02-28T11:37:55;15.90;84.90
49124;DHT22;48506;48.202;16.274;2024-02-28T11:40:24;15.90;83.60
49124;DHT22;48506;48.202;16.274;2024-02-28T11:43:01;16.00;84.10
49124;DHT22;48506;48.202;16.274;2024-02-28T11:45:29;16.10;83.60
49124;DHT22;48506;48.202;16.274;2024-02-28T11:47:56;16.10;83.60
49124;DHT22;48506;48.202;16.274;2024-02-28T11:50:22;16.30;84.20
49124;DHT22;48506;48.202;16.274;2024-02-28T11:52:49;16.40;82.80
49124;DHT22;48506;48.202;16.274;2024-02-28T11:55:14;16.40;83.30
49124;DHT22;48506;48.202;16.274;2024-02-28T11:57:40;16.50;83.20
49124;DHT22;48506;48.202;16.274;2024-02-28T12:00:10;16.60;82.70
49124;DHT22;48506;48.202;16.274;2024-02-28T12:02:38;16.40;82.10
49124;DHT22;48506;48.202;16.274;2024-02-28T12:05:05;16.30;82.70
49124;DHT22;48506;48.202;16.274;2024-02-28T12:07:31;16.20;81.80
49124;DHT22;48506;48.202;16.274;2024-02-28T12:09:58;16.10;82.70
49124;DHT22;48506;48.202;16.274;2024-02-28T12:12:24;16.10;82.80
49124;DHT22;48506;48.202;16.274;2024-02-28T12:14:50;16.10;82.40
49124;DHT22;48506;48.202;16.274;2024-02-28T12:17:17;16.20;82.90
49124;DHT22;48506;48.202;16.274;2024-02-28T12:19:43;16.30;82.10
49124;DHT22;48506;48.202;16.274;2024-02-28T12:22:10;16.10;83.30
49124;DHT22;48506;48.202;16.274;2024-02-28T12:24:37;16.20;81.90
49124;DHT22;48506;48.202;16.274;2024-02-28T12:27:03;16.10;81.20
49124;DHT22;48506;48.202;16.274;2024-02-28T12:29:28;16.00;82.20
49124;DHT22;48506;48.202;16.274;2024-02-28T12:31:54;16.00;82.80
49124;DHT22;48506;48.202;16.274;2024-02-28T12:34:21;16.20;83.40
49124;DHT22;48506;48.202;16.274;2024-02-28T12:36:47;16.30;82.00
49124;DHT22;48506;48.202;16.274;2024-02-28T12:39:13;16.30;82.40
49124;DHT22;48506;48.202;16.274;2024-02-28T12:41:40;16.30;82.70
49124;DHT22;48506;48.202;16.274;2024-02-28T12:44:06;16.40;81.80
49124;DHT22;48506;48.202;16.274;2024-02-28T12:46:35;16.30;80.90
49124;DHT22;48506;48.202;16.274;2024-02-28T12:49:02;16.00;81.70
49124;DHT22;48506;48.202;16.274;2024-02-28T12:51:57;16.10;82.00
49124;DHT22;48506;48.202;16.274;2024-02-28T12:54:23;16.00;82.10
49124;DHT22;48506;48.202;16.274;2024-02-28T12:56:50;15.90;82.00
49124;DHT22;48506;48.202;16.274;2024-02-28T12:59:15;16.00;82.30
49124;DHT22;48506;48.202;16.274;2024-02-28T13:01:42;16.20;82.50
49124;DHT22;48506;48.202;16.274;2024-02-28T13:04:08;16.40;82.70
49124;DHT22;48506;48.202;16.274;2024-02-28T13:06:34;16.70;80.90
49124;DHT22;48506;48.202;16.274;2024-02-28T13:09:00;16.60;81.50
49124;DHT22;48506;48.202;16.274;2024-02-28T13:11:26;16.70;82.30
49124;DHT22;48506;48.202;16.274;2024-02-28T13:13:53;16.70;80.90
49124;DHT22;48506;48.202;16.274;2024-02-28T13:16:20;16.80;81.60
49124;DHT22;48506;48.202;16.274;2024-02-28T13:18:47;16.80;80.70
49124;DHT22;48506;48.202;16.274;2024-02-28T13:21:13;16.70;80.90
49124;DHT22;48506;48.202;16.274;2024-02-28T13:23:39;16.60;80.80
49124;DHT22;48506;48.202;16.274;2024-02-28T13:26:06;16.60;81.50
49124;DHT22;48506;48.202;16.274;2024-02-28T13:28:33;16.70;81.40
49124;DHT22;48506;48.202;16.274;2024-02-28T13:31:02;16.60;80.40
49124;DHT22;48506;48.202;16.274;2024-02-28T13:33:28;16.30;80.50
49124;DHT22;48506;48.202;16.274;2024-02-28T13:35:54;16.20;81.70
49124;DHT22;48506;48.202;16.274;2024-02-28T13:38:21;16.20;82.40
49124;DHT22;48506;48.202;16.274;2024-02-28T13:40:49;16.30;81.80
49124;DHT22;48506;48.202;16.274;2024-02-28T13:43:16;16.10;81.70
49124;DHT22;48506;48.202;16.274;2024-02-28T13:45:47;16.20;82.40
49124;DHT22;48506;48.202;16.274;2024-02-28T13:48:18;16.40;81.90
49124;DHT22;48506;48.202;16.274;2024-02-28T13:50:48;16.50;81.60
49124;DHT22;48506;48.202;16.274;2024-02-28T13:53:14;17.00;81.30
49124;DHT22;48506;48.202;16.274;2024-02-28T13:55:41;17.10;80.10
49124;DHT22;48506;48.202;16.274;2024-02-28T13:58:12;17.00;80.00
49124;DHT22;48506;48.202;16.274;2024-02-28T14:00:38;17.00;79.80
49124;DHT22;48506;48.202;16.274;2024-02-28T14:03:05;16.70;79.80
49124;DHT22;48506;48.202;16.274;2024-02-28T14:05:34;16.80;80.30
49124;DHT22;48506;48.202;16.274;2024-02-28T14:08:00;16.90;80.60
49124;DHT22;48506;48.202;16.274;2024-02-28T14:10:29;16.80;79.80
49124;DHT22;48506;48.202;16.274;2024-02-28T14:12:56;16.50;80.00
49124;DHT22;48506;48.202;16.274;2024-02-28T14:15:24;16.10;81.20
49124;DHT22;48506;48.202;16.274;2024-02-28T14:17:50;15.70;81.50
49124;DHT22;48506;48.202;16.274;2024-02-28T14:20:17;15.40;82.40
49124;DHT22;48506;48.202;16.274;2024-02-28T14:22:44;15.30;83.00
49124;DHT22;48506;48.202;16.274;2024-02-28T14:25:15;15.20;83.30
49124;DHT22;48506;48.202;16.274;2024-02-28T14:27:45;15.20;83.30
49124;DHT22;48506;48.202;16.274;2024-02-28T14:30:12;15.30;83.60
49124;DHT22;48506;48.202;16.274;2024-02-28T14:32:41;15.40;82.80
49124;DHT22;48506;48.202;16.274;2024-02-28T14:35:08;15.40;82.50
49124;DHT22;48506;48.202;16.274;2024-02-28T14:37:36;15.30;82.60
49124;DHT22;48506;48.202;16.274;2024-02-28T14:40:04;15.10;83.20
49124;DHT22;48506;48.202;16.274;2024-02-28T14:42:45;15.00;83.90
49124;DHT22;48506;48.202;16.274;2024-02-28T14:45:12;15.10;83.30
49124;DHT22;48506;48.202;16.274;2024-02-28T14:47:40;15.20;83.80
49124;DHT22;48506;48.202;16.274;2024-02-28T14:50:07;15.20;83.50
49124;DHT22;48506;48.202;16.274;2024-02-28T14:52:41;15.10;84.00
49124;DHT22;48506;48.202;16.274;2024-02-28T14:55:08;15.10;83.60
49124;DHT22;48506;48.202;16.274;2024-02-28T14:57:35;15.00;83.90
49124;DHT22;48506;48.202;16.274;2024-02-28T15:00:02;15.00;84.40
49124;DHT22;48506;48.202;16.274;2024-02-28T15:02:34;14.90;84.70
49124;DHT22;48506;48.202;16.274;2024-02-28T15:05:01;14.90;84.40
49124;DHT22;48506;48.202;16.274;2024-02-28T15:07:31;14.90;85.00
49124;DHT22;48506;48.202;16.274;2024-02-28T15:09:56;15.10;85.00
49124;DHT22;48506;48.202;16.274;2024-02-28T15:12:28;15.20;85.30
49124;DHT22;48506;48.202;16.274;2024-02-28T15:14:55;15.20;84.50
49124;DHT22;48506;48.202;16.274;2024-02-28T15:17:22;15.20;84.10
49124;DHT22;48506;48.202;16.274;2024-02-28T15:19:48;15.00;84.60